CFG2133 LEPA-EDDH
Flight info
| Callsign | CFG2133 |
|---|---|
| Flight time | 2h 11m |
| Altitude | 40000 |
| Route | MEROS N853 LUMAS DCT MAXIR DCT LUSOL DCT BODRU DCT OKTET DCT IRMAR DCT KINES DCT VANAS DCT MOBLO DCT UBIMA DCT SOSAL DCT KORED DCT BERSU N871 DITON/N0460F390 DCT LOKTA DCT TEDGO DCT HAREM DCT LOHRE DCT ELNAT/N0464F400 P605 NOLGO NOLGO6A |
| Aircraft | A339/H-SADE1E2E3GHIJ3J5M1P2RWXY/LB2D1 |
Departure
| Time | 2026-05-07 18:27 |
|---|---|
| Airport | Palma de Mallorca Airport (LEPA) |
Arrival
| Time | 2026-05-07 20:39 |
|---|---|
| Airport | Hamburg Helmut Schmidt Airport (EDDH) |
| Time | Latitude | Longitude | Altitude | Speed | Heading |
|---|---|---|---|---|---|
| 2026-05-07 17:43 | 39.55006 | 2.73734 | 44 ft | 0 kts | 239° |
| 2026-05-07 18:12 | 39.55008 | 2.73739 | 44 ft | 3 kts | 239° |
| 2026-05-07 18:12 | 39.55021 | 2.73768 | 40 ft | 4 kts | 239° |
| 2026-05-07 18:13 | 39.55024 | 2.73774 | 39 ft | 0 kts | 239° |
| 2026-05-07 18:13 | 39.55032 | 2.73792 | 41 ft | 4 kts | 219° |
| 2026-05-07 18:13 | 39.55054 | 2.73810 | 41 ft | 4 kts | 185° |
| 2026-05-07 18:14 | 39.55082 | 2.73809 | 41 ft | 4 kts | 168° |
| 2026-05-07 18:14 | 39.55107 | 2.73802 | 40 ft | 1 kts | 144° |
| 2026-05-07 18:16 | 39.55103 | 2.73805 | 42 ft | 3 kts | 144° |
| 2026-05-07 18:17 | 39.55068 | 2.73833 | 41 ft | 10 kts | 148° |
| 2026-05-07 18:17 | 39.55003 | 2.73884 | 44 ft | 12 kts | 149° |
| 2026-05-07 18:17 | 39.54929 | 2.73940 | 44 ft | 13 kts | 149° |
| 2026-05-07 18:17 | 39.54836 | 2.73996 | 44 ft | 14 kts | 175° |
| 2026-05-07 18:18 | 39.54808 | 2.73973 | 43 ft | 7 kts | 218° |
| 2026-05-07 18:18 | 39.54758 | 2.73957 | 44 ft | 8 kts | 177° |
| 2026-05-07 18:18 | 39.54706 | 2.73933 | 41 ft | 8 kts | 218° |
| 2026-05-07 18:18 | 39.54667 | 2.73869 | 44 ft | 10 kts | 234° |
| 2026-05-07 18:19 | 39.54626 | 2.73786 | 44 ft | 12 kts | 238° |
| 2026-05-07 18:19 | 39.54582 | 2.73687 | 44 ft | 14 kts | 239° |
| 2026-05-07 18:19 | 39.54529 | 2.73575 | 42 ft | 15 kts | 238° |
| 2026-05-07 18:19 | 39.54471 | 2.73453 | 44 ft | 17 kts | 238° |
| 2026-05-07 18:20 | 39.54407 | 2.73321 | 44 ft | 18 kts | 238° |
| 2026-05-07 18:20 | 39.54339 | 2.73179 | 44 ft | 17 kts | 238° |
| 2026-05-07 18:20 | 39.54272 | 2.73068 | 44 ft | 10 kts | 209° |
| 2026-05-07 18:20 | 39.54222 | 2.73077 | 44 ft | 6 kts | 150° |
| 2026-05-07 18:21 | 39.54219 | 2.73092 | 44 ft | 0 kts | 114° |
| 2026-05-07 18:22 | 39.54217 | 2.73103 | 44 ft | 0 kts | 107° |
| 2026-05-07 18:25 | 39.54213 | 2.73120 | 44 ft | 6 kts | 107° |
| 2026-05-07 18:26 | 39.54211 | 2.73209 | 44 ft | 12 kts | 88° |
| 2026-05-07 18:26 | 39.54214 | 2.73319 | 44 ft | 13 kts | 87° |
| 2026-05-07 18:26 | 39.54247 | 2.73421 | 44 ft | 14 kts | 62° |
| 2026-05-07 18:26 | 39.54453 | 2.73860 | 44 ft | 104 kts | 58° |
| 2026-05-07 18:27 | 39.54974 | 2.74963 | 125 ft | 173 kts | 58° |
| 2026-05-07 18:27 | 39.55678 | 2.76460 | 358 ft | 218 kts | 58° |
| 2026-05-07 18:27 | 39.56514 | 2.78236 | 758 ft | 242 kts | 58° |
| 2026-05-07 18:27 | 39.57107 | 2.79500 | 1052 ft | 254 kts | 58° |
| 2026-05-07 18:28 | 39.58385 | 2.82207 | 1756 ft | 270 kts | 58° |
| 2026-05-07 18:28 | 39.59356 | 2.84219 | 2924 ft | 255 kts | 58° |
| 2026-05-07 18:28 | 39.60273 | 2.86117 | 4084 ft | 241 kts | 59° |
| 2026-05-07 18:28 | 39.61134 | 2.87918 | 5248 ft | 232 kts | 59° |
| 2026-05-07 18:29 | 39.61964 | 2.89662 | 6203 ft | 228 kts | 59° |
| 2026-05-07 18:29 | 39.62802 | 2.91361 | 7218 ft | 221 kts | 54° |
| 2026-05-07 18:29 | 39.63801 | 2.92899 | 8038 ft | 225 kts | 50° |
| 2026-05-07 18:29 | 39.64820 | 2.94505 | 8831 ft | 228 kts | 55° |
| 2026-05-07 18:30 | 39.65741 | 2.96251 | 9333 ft | 244 kts | 60° |
| 2026-05-07 18:30 | 39.66617 | 2.98239 | 9666 ft | 265 kts | 63° |
| 2026-05-07 18:30 | 39.67472 | 3.00398 | 10019 ft | 281 kts | 65° |
| 2026-05-07 18:30 | 39.68370 | 3.02751 | 10292 ft | 301 kts | 65° |
| 2026-05-07 18:31 | 39.69326 | 3.05257 | 10489 ft | 321 kts | 65° |
| 2026-05-07 18:31 | 39.70349 | 3.07906 | 10920 ft | 332 kts | 65° |
| 2026-05-07 18:31 | 39.71393 | 3.10589 | 11562 ft | 335 kts | 65° |
| 2026-05-07 18:31 | 39.72456 | 3.13308 | 12189 ft | 339 kts | 64° |
| 2026-05-07 18:32 | 39.73530 | 3.16052 | 12814 ft | 344 kts | 65° |
| 2026-05-07 18:32 | 39.74622 | 3.18841 | 13460 ft | 347 kts | 65° |
| 2026-05-07 18:32 | 39.75723 | 3.21657 | 14052 ft | 351 kts | 65° |
| 2026-05-07 18:32 | 39.76844 | 3.24497 | 14592 ft | 356 kts | 63° |
| 2026-05-07 18:33 | 39.78188 | 3.27223 | 15146 ft | 362 kts | 55° |
| 2026-05-07 18:33 | 39.79830 | 3.29729 | 15670 ft | 367 kts | 50° |
| 2026-05-07 18:33 | 39.81526 | 3.32218 | 15876 ft | 370 kts | 51° |
| 2026-05-07 18:33 | 39.83225 | 3.34748 | 16026 ft | 373 kts | 51° |
| 2026-05-07 18:34 | 39.84926 | 3.37300 | 16602 ft | 375 kts | 51° |
| 2026-05-07 18:34 | 39.86621 | 3.39848 | 17159 ft | 378 kts | 51° |
| 2026-05-07 18:34 | 39.88349 | 3.42450 | 17669 ft | 383 kts | 51° |
| 2026-05-07 18:34 | 39.90101 | 3.45090 | 18182 ft | 387 kts | 51° |
| 2026-05-07 18:35 | 39.91872 | 3.47760 | 18638 ft | 392 kts | 51° |
| 2026-05-07 18:35 | 39.93658 | 3.50456 | 19088 ft | 396 kts | 51° |
| 2026-05-07 18:35 | 39.95462 | 3.53179 | 19551 ft | 400 kts | 51° |
| 2026-05-07 18:35 | 39.97290 | 3.55942 | 20018 ft | 404 kts | 51° |
| 2026-05-07 18:36 | 39.99141 | 3.58741 | 20492 ft | 408 kts | 51° |
| 2026-05-07 18:36 | 40.01006 | 3.61565 | 20959 ft | 412 kts | 50° |
| 2026-05-07 18:36 | 40.02860 | 3.64373 | 21435 ft | 416 kts | 50° |
| 2026-05-07 18:36 | 40.04778 | 3.67282 | 21918 ft | 420 kts | 50° |
| 2026-05-07 18:37 | 40.06668 | 3.70151 | 22402 ft | 424 kts | 50° |
| 2026-05-07 18:37 | 40.08603 | 3.73090 | 22896 ft | 429 kts | 50° |
| 2026-05-07 18:37 | 40.10545 | 3.76043 | 23388 ft | 432 kts | 50° |
| 2026-05-07 18:37 | 40.12523 | 3.79053 | 23823 ft | 437 kts | 50° |
| 2026-05-07 18:38 | 40.14508 | 3.82077 | 24252 ft | 440 kts | 50° |
| 2026-05-07 18:38 | 40.16500 | 3.85114 | 24663 ft | 444 kts | 51° |
| 2026-05-07 18:38 | 40.18520 | 3.88198 | 25088 ft | 448 kts | 51° |
| 2026-05-07 18:38 | 40.20559 | 3.91313 | 25497 ft | 451 kts | 51° |
| 2026-05-07 18:39 | 40.22605 | 3.94443 | 25903 ft | 455 kts | 51° |
| 2026-05-07 18:39 | 40.24670 | 3.97603 | 26288 ft | 459 kts | 51° |
| 2026-05-07 18:39 | 40.26720 | 4.00745 | 26677 ft | 463 kts | 51° |
| 2026-05-07 18:39 | 40.28823 | 4.03971 | 27064 ft | 467 kts | 51° |
| 2026-05-07 18:40 | 40.30939 | 4.07221 | 27454 ft | 471 kts | 51° |
| 2026-05-07 18:40 | 40.33066 | 4.10489 | 27806 ft | 475 kts | 51° |
| 2026-05-07 18:40 | 40.35217 | 4.13800 | 28178 ft | 478 kts | 51° |
| 2026-05-07 18:40 | 40.37384 | 4.17139 | 28543 ft | 482 kts | 51° |
| 2026-05-07 18:41 | 40.39567 | 4.20505 | 28901 ft | 486 kts | 51° |
| 2026-05-07 18:41 | 40.41761 | 4.23892 | 29262 ft | 489 kts | 51° |
| 2026-05-07 18:41 | 40.43962 | 4.27295 | 29599 ft | 493 kts | 51° |
| 2026-05-07 18:41 | 40.46201 | 4.30759 | 29970 ft | 496 kts | 51° |
| 2026-05-07 18:42 | 40.47722 | 4.32998 | 30155 ft | 499 kts | 46° |
| 2026-05-07 18:42 | 40.51340 | 4.36730 | 30642 ft | 503 kts | 31° |
| 2026-05-07 18:42 | 40.54492 | 4.38737 | 30962 ft | 504 kts | 19° |
| 2026-05-07 18:42 | 40.57881 | 4.39948 | 31292 ft | 504 kts | 7° |
| 2026-05-07 18:43 | 40.61352 | 4.40428 | 31614 ft | 504 kts | 1° |
| 2026-05-07 18:43 | 40.64871 | 4.40761 | 31912 ft | 508 kts | 2° |
| 2026-05-07 18:43 | 40.67204 | 4.41064 | 32141 ft | 510 kts | 4° |
| 2026-05-07 18:43 | 40.71932 | 4.41925 | 32526 ft | 515 kts | 6° |
| 2026-05-07 18:44 | 40.74268 | 4.42436 | 32694 ft | 517 kts | 7° |
| 2026-05-07 18:44 | 40.77821 | 4.43268 | 32922 ft | 519 kts | 8° |
| 2026-05-07 18:44 | 40.81384 | 4.44131 | 33137 ft | 521 kts | 8° |
| 2026-05-07 18:44 | 40.86119 | 4.45285 | 33378 ft | 524 kts | 8° |
| 2026-05-07 18:45 | 40.88537 | 4.45874 | 33522 ft | 524 kts | 8° |
| 2026-05-07 18:45 | 40.92122 | 4.46744 | 33742 ft | 525 kts | 8° |
| 2026-05-07 18:45 | 40.95682 | 4.47607 | 33964 ft | 525 kts | 8° |
| 2026-05-07 18:45 | 40.99272 | 4.48476 | 34154 ft | 525 kts | 7° |
| 2026-05-07 18:46 | 41.02865 | 4.49348 | 34382 ft | 524 kts | 7° |
| 2026-05-07 18:46 | 41.06450 | 4.50218 | 34604 ft | 524 kts | 7° |
| 2026-05-07 18:46 | 41.10029 | 4.51088 | 34813 ft | 523 kts | 7° |
| 2026-05-07 18:46 | 41.13606 | 4.51961 | 35039 ft | 523 kts | 7° |
| 2026-05-07 18:47 | 41.17194 | 4.52837 | 35266 ft | 522 kts | 7° |
| 2026-05-07 18:47 | 41.20753 | 4.53708 | 35491 ft | 521 kts | 7° |
| 2026-05-07 18:47 | 41.24314 | 4.54579 | 35713 ft | 521 kts | 7° |
| 2026-05-07 18:47 | 41.27878 | 4.55452 | 35947 ft | 520 kts | 7° |
| 2026-05-07 18:48 | 41.31378 | 4.56311 | 36176 ft | 519 kts | 7° |
| 2026-05-07 18:48 | 41.34926 | 4.57181 | 36408 ft | 518 kts | 7° |
| 2026-05-07 18:48 | 41.38467 | 4.58052 | 36644 ft | 516 kts | 7° |
| 2026-05-07 18:48 | 41.41999 | 4.58920 | 36884 ft | 515 kts | 7° |
| 2026-05-07 18:49 | 41.45517 | 4.59786 | 37121 ft | 514 kts | 7° |
| 2026-05-07 18:49 | 41.49026 | 4.60651 | 37362 ft | 513 kts | 7° |
| 2026-05-07 18:49 | 41.52539 | 4.61518 | 37599 ft | 512 kts | 6° |
| 2026-05-07 18:49 | 41.56030 | 4.62380 | 37829 ft | 510 kts | 6° |
| 2026-05-07 18:50 | 41.59522 | 4.63243 | 38054 ft | 510 kts | 6° |
| 2026-05-07 18:50 | 41.62961 | 4.64094 | 38269 ft | 509 kts | 6° |
| 2026-05-07 18:50 | 41.66474 | 4.64964 | 38467 ft | 508 kts | 6° |
| 2026-05-07 18:50 | 41.69895 | 4.65883 | 38621 ft | 510 kts | 11° |
| 2026-05-07 18:51 | 41.73293 | 4.67325 | 38769 ft | 513 kts | 18° |
| 2026-05-07 18:51 | 41.76560 | 4.69308 | 38923 ft | 516 kts | 26° |
| 2026-05-07 18:51 | 41.79655 | 4.71743 | 39058 ft | 517 kts | 30° |
| 2026-05-07 18:51 | 41.82729 | 4.74245 | 39175 ft | 517 kts | 29° |
| 2026-05-07 18:52 | 41.85799 | 4.76709 | 39317 ft | 517 kts | 29° |
| 2026-05-07 18:52 | 41.88885 | 4.79182 | 39444 ft | 517 kts | 29° |
| 2026-05-07 18:52 | 41.91987 | 4.81673 | 39574 ft | 517 kts | 29° |
| 2026-05-07 18:52 | 41.95074 | 4.84159 | 39704 ft | 517 kts | 29° |
| 2026-05-07 18:53 | 41.98114 | 4.86613 | 39829 ft | 517 kts | 29° |
| 2026-05-07 18:53 | 42.01184 | 4.89096 | 39951 ft | 517 kts | 29° |
| 2026-05-07 18:53 | 42.04273 | 4.91598 | 39962 ft | 517 kts | 29° |
| 2026-05-07 18:54 | 42.10420 | 4.96584 | 39967 ft | 516 kts | 29° |
| 2026-05-07 18:54 | 42.16575 | 5.01589 | 39964 ft | 516 kts | 29° |
| 2026-05-07 18:55 | 42.22717 | 5.06594 | 39971 ft | 516 kts | 29° |
| 2026-05-07 18:55 | 42.28825 | 5.11581 | 39973 ft | 516 kts | 29° |
| 2026-05-07 18:56 | 42.34958 | 5.16601 | 39975 ft | 516 kts | 29° |
| 2026-05-07 18:56 | 42.41076 | 5.21619 | 39973 ft | 515 kts | 29° |
| 2026-05-07 18:57 | 42.47222 | 5.26672 | 39975 ft | 515 kts | 29° |
| 2026-05-07 18:57 | 42.53325 | 5.31702 | 39972 ft | 515 kts | 29° |
| 2026-05-07 18:58 | 42.59418 | 5.36737 | 39968 ft | 515 kts | 29° |
| 2026-05-07 18:58 | 42.65523 | 5.41793 | 39967 ft | 515 kts | 29° |
| 2026-05-07 18:59 | 42.71642 | 5.46872 | 39970 ft | 515 kts | 29° |
| 2026-05-07 18:59 | 42.77744 | 5.51947 | 39969 ft | 515 kts | 29° |
| 2026-05-07 19:00 | 42.83818 | 5.57013 | 39971 ft | 515 kts | 29° |
| 2026-05-07 19:00 | 42.89912 | 5.62109 | 39974 ft | 515 kts | 29° |
| 2026-05-07 19:01 | 42.95916 | 5.67139 | 39972 ft | 514 kts | 29° |
| 2026-05-07 19:01 | 43.02027 | 5.72271 | 39965 ft | 515 kts | 29° |
| 2026-05-07 19:02 | 43.08118 | 5.77397 | 39975 ft | 520 kts | 29° |
| 2026-05-07 19:02 | 43.14295 | 5.82609 | 39982 ft | 522 kts | 29° |
| 2026-05-07 19:03 | 43.20484 | 5.87841 | 39977 ft | 524 kts | 29° |
| 2026-05-07 19:03 | 43.26705 | 5.93115 | 39954 ft | 525 kts | 29° |
| 2026-05-07 19:04 | 43.32878 | 5.98362 | 39955 ft | 526 kts | 29° |
| 2026-05-07 19:04 | 43.39412 | 6.02694 | 39965 ft | 519 kts | 14° |
| 2026-05-07 19:05 | 43.46403 | 6.04742 | 39965 ft | 510 kts | 1° |
| 2026-05-07 19:05 | 43.53473 | 6.05424 | 39940 ft | 510 kts | 359° |
| 2026-05-07 19:06 | 43.60536 | 6.06147 | 39943 ft | 510 kts | 359° |
| 2026-05-07 19:06 | 43.71110 | 6.07252 | 39933 ft | 510 kts | 2° |
| 2026-05-07 19:07 | 43.78071 | 6.09252 | 39931 ft | 517 kts | 13° |
| 2026-05-07 19:07 | 43.84773 | 6.13048 | 39967 ft | 521 kts | 24° |
| 2026-05-07 19:08 | 43.91277 | 6.17497 | 39964 ft | 521 kts | 23° |
| 2026-05-07 19:08 | 43.97784 | 6.21913 | 39969 ft | 521 kts | 23° |
| 2026-05-07 19:09 | 44.04240 | 6.26328 | 39973 ft | 521 kts | 23° |
| 2026-05-07 19:09 | 44.10753 | 6.30800 | 39973 ft | 521 kts | 23° |
| 2026-05-07 19:10 | 44.17242 | 6.35269 | 39973 ft | 521 kts | 23° |
| 2026-05-07 19:10 | 44.23719 | 6.39737 | 39978 ft | 520 kts | 23° |
| 2026-05-07 19:11 | 44.30181 | 6.44212 | 39972 ft | 520 kts | 23° |
| 2026-05-07 19:11 | 44.36651 | 6.48704 | 39980 ft | 519 kts | 23° |
| 2026-05-07 19:12 | 44.42991 | 6.53108 | 39980 ft | 520 kts | 23° |
| 2026-05-07 19:12 | 44.49451 | 6.57609 | 39975 ft | 520 kts | 23° |
| 2026-05-07 19:13 | 44.55932 | 6.62137 | 39983 ft | 519 kts | 23° |
| 2026-05-07 19:13 | 44.62365 | 6.66646 | 39990 ft | 517 kts | 23° |
| 2026-05-07 19:14 | 44.68815 | 6.71173 | 39987 ft | 517 kts | 23° |
| 2026-05-07 19:14 | 44.75217 | 6.75570 | 39983 ft | 514 kts | 18° |
| 2026-05-07 19:15 | 44.82041 | 6.78183 | 39993 ft | 506 kts | 4° |
| 2026-05-07 19:15 | 44.88989 | 6.78457 | 40001 ft | 497 kts | 352° |
| 2026-05-07 19:16 | 44.95896 | 6.77977 | 39997 ft | 496 kts | 353° |
| 2026-05-07 19:16 | 45.02708 | 6.77546 | 39999 ft | 495 kts | 353° |
| 2026-05-07 19:17 | 45.09595 | 6.77089 | 39992 ft | 495 kts | 353° |
| 2026-05-07 19:17 | 45.16491 | 6.76631 | 40002 ft | 496 kts | 353° |
| 2026-05-07 19:18 | 45.23399 | 6.76169 | 39999 ft | 496 kts | 353° |
| 2026-05-07 19:18 | 45.30238 | 6.75715 | 40003 ft | 494 kts | 353° |
| 2026-05-07 19:19 | 45.37107 | 6.75255 | 40003 ft | 495 kts | 353° |
| 2026-05-07 19:19 | 45.43990 | 6.74791 | 39996 ft | 496 kts | 353° |
| 2026-05-07 19:20 | 45.50877 | 6.74329 | 40003 ft | 495 kts | 353° |
| 2026-05-07 19:20 | 45.57753 | 6.73857 | 40001 ft | 494 kts | 353° |
| 2026-05-07 19:21 | 45.64566 | 6.73393 | 39996 ft | 494 kts | 353° |
| 2026-05-07 19:21 | 45.71445 | 6.72920 | 40003 ft | 495 kts | 353° |
| 2026-05-07 19:22 | 45.78322 | 6.72452 | 39992 ft | 495 kts | 353° |
| 2026-05-07 19:22 | 45.85208 | 6.71983 | 39995 ft | 495 kts | 353° |
| 2026-05-07 19:23 | 45.92082 | 6.71514 | 39998 ft | 495 kts | 353° |
| 2026-05-07 19:23 | 45.98893 | 6.71048 | 40002 ft | 495 kts | 353° |
| 2026-05-07 19:24 | 46.05774 | 6.70578 | 40005 ft | 493 kts | 353° |
| 2026-05-07 19:24 | 46.12663 | 6.70992 | 40002 ft | 499 kts | 4° |
| 2026-05-07 19:25 | 46.19493 | 6.73033 | 40007 ft | 504 kts | 13° |
| 2026-05-07 19:25 | 46.26114 | 6.75855 | 40010 ft | 492 kts | 13° |
| 2026-05-07 19:26 | 46.32649 | 6.78589 | 40015 ft | 489 kts | 13° |
| 2026-05-07 19:26 | 46.39214 | 6.81363 | 40012 ft | 491 kts | 13° |
| 2026-05-07 19:27 | 46.45774 | 6.84157 | 40013 ft | 491 kts | 13° |
| 2026-05-07 19:27 | 46.52234 | 6.87379 | 40006 ft | 495 kts | 23° |
| 2026-05-07 19:28 | 46.57928 | 6.92938 | 40010 ft | 501 kts | 40° |
| 2026-05-07 19:28 | 46.62536 | 7.00579 | 40017 ft | 504 kts | 50° |
| 2026-05-07 19:29 | 46.66933 | 7.08521 | 40042 ft | 504 kts | 50° |
| 2026-05-07 19:29 | 46.71337 | 7.16466 | 40061 ft | 504 kts | 50° |
| 2026-05-07 19:30 | 46.75689 | 7.24356 | 40025 ft | 505 kts | 50° |
| 2026-05-07 19:30 | 46.80097 | 7.32375 | 40023 ft | 505 kts | 50° |
| 2026-05-07 19:31 | 46.84475 | 7.40362 | 40022 ft | 504 kts | 50° |
| 2026-05-07 19:31 | 46.88209 | 7.47201 | 40016 ft | 504 kts | 50° |
| 2026-05-07 19:32 | 46.92556 | 7.55195 | 40023 ft | 502 kts | 50° |
| 2026-05-07 19:32 | 46.96883 | 7.63174 | 40025 ft | 502 kts | 50° |
| 2026-05-07 19:33 | 47.01216 | 7.71185 | 40024 ft | 501 kts | 50° |
| 2026-05-07 19:33 | 47.05545 | 7.79208 | 40030 ft | 501 kts | 50° |
| 2026-05-07 19:34 | 47.09852 | 7.87218 | 40032 ft | 501 kts | 50° |
| 2026-05-07 19:34 | 47.14068 | 7.95323 | 40029 ft | 501 kts | 55° |
| 2026-05-07 19:35 | 47.17758 | 8.04000 | 40027 ft | 501 kts | 57° |
| 2026-05-07 19:35 | 47.21419 | 8.12574 | 40024 ft | 502 kts | 57° |
| 2026-05-07 19:36 | 47.25133 | 8.21299 | 40027 ft | 504 kts | 57° |
| 2026-05-07 19:36 | 47.29140 | 8.29805 | 40024 ft | 507 kts | 47° |
| 2026-05-07 19:37 | 47.34181 | 8.36933 | 40048 ft | 507 kts | 36° |
| 2026-05-07 19:37 | 47.39883 | 8.42608 | 40046 ft | 507 kts | 30° |
| 2026-05-07 19:38 | 47.45787 | 8.48326 | 40049 ft | 508 kts | 31° |
| 2026-05-07 19:38 | 47.51693 | 8.54080 | 40049 ft | 509 kts | 31° |
| 2026-05-07 19:39 | 47.57593 | 8.59831 | 40048 ft | 509 kts | 31° |
| 2026-05-07 19:39 | 47.63511 | 8.65610 | 40040 ft | 509 kts | 31° |
| 2026-05-07 19:40 | 47.69392 | 8.71368 | 40043 ft | 509 kts | 31° |
| 2026-05-07 19:40 | 47.75294 | 8.77167 | 40054 ft | 509 kts | 31° |
| 2026-05-07 19:41 | 47.81190 | 8.82975 | 40049 ft | 509 kts | 31° |
| 2026-05-07 19:41 | 47.87112 | 8.88824 | 40052 ft | 509 kts | 31° |
| 2026-05-07 19:42 | 47.92987 | 8.94644 | 40045 ft | 509 kts | 31° |
| 2026-05-07 19:42 | 47.98852 | 9.00468 | 40059 ft | 509 kts | 31° |
| 2026-05-07 19:43 | 48.04737 | 9.06328 | 40057 ft | 509 kts | 31° |
| 2026-05-07 19:43 | 48.10635 | 9.12213 | 40063 ft | 508 kts | 31° |
| 2026-05-07 19:44 | 48.16876 | 9.16926 | 40058 ft | 503 kts | 17° |
| 2026-05-07 19:44 | 48.23646 | 9.19437 | 40028 ft | 497 kts | 4° |
| 2026-05-07 19:45 | 48.30449 | 9.20549 | 40033 ft | 496 kts | 3° |
| 2026-05-07 19:45 | 48.37326 | 9.21733 | 40054 ft | 496 kts | 3° |
| 2026-05-07 19:46 | 48.44160 | 9.22900 | 40048 ft | 496 kts | 3° |
| 2026-05-07 19:46 | 48.51029 | 9.24067 | 40048 ft | 496 kts | 3° |
| 2026-05-07 19:47 | 48.57882 | 9.25233 | 40052 ft | 496 kts | 3° |
| 2026-05-07 19:47 | 48.64726 | 9.26387 | 40052 ft | 496 kts | 3° |
| 2026-05-07 19:48 | 48.71468 | 9.27398 | 40051 ft | 495 kts | 2° |
| 2026-05-07 19:48 | 48.78345 | 9.28431 | 40051 ft | 496 kts | 3° |
| 2026-05-07 19:49 | 48.85208 | 9.29483 | 40044 ft | 496 kts | 3° |
| 2026-05-07 19:49 | 48.92068 | 9.30538 | 40036 ft | 496 kts | 3° |
| 2026-05-07 19:50 | 48.98867 | 9.31588 | 40029 ft | 496 kts | 3° |
| 2026-05-07 19:50 | 49.05750 | 9.32652 | 40035 ft | 496 kts | 3° |
| 2026-05-07 19:51 | 49.12613 | 9.33719 | 40038 ft | 496 kts | 3° |
| 2026-05-07 19:51 | 49.19471 | 9.34786 | 40034 ft | 496 kts | 3° |
| 2026-05-07 19:52 | 49.26320 | 9.35853 | 40033 ft | 496 kts | 3° |
| 2026-05-07 19:52 | 49.33164 | 9.36927 | 40025 ft | 496 kts | 3° |
| 2026-05-07 19:53 | 49.40020 | 9.38005 | 40025 ft | 496 kts | 3° |
| 2026-05-07 19:53 | 49.46879 | 9.39083 | 40027 ft | 496 kts | 3° |
| 2026-05-07 19:54 | 49.53774 | 9.40172 | 40033 ft | 496 kts | 3° |
| 2026-05-07 19:54 | 49.60644 | 9.41259 | 40031 ft | 496 kts | 3° |
| 2026-05-07 19:55 | 49.67498 | 9.42346 | 40034 ft | 496 kts | 3° |
| 2026-05-07 19:55 | 49.74334 | 9.43435 | 40032 ft | 496 kts | 3° |
| 2026-05-07 19:56 | 49.81188 | 9.44530 | 40033 ft | 496 kts | 3° |
| 2026-05-07 19:56 | 49.88062 | 9.45631 | 40038 ft | 496 kts | 4° |
| 2026-05-07 19:57 | 49.94913 | 9.46733 | 40042 ft | 496 kts | 4° |
| 2026-05-07 19:57 | 50.01790 | 9.47843 | 40042 ft | 496 kts | 4° |
| 2026-05-07 19:58 | 50.08606 | 9.48949 | 40046 ft | 496 kts | 4° |
| 2026-05-07 19:58 | 50.15482 | 9.50163 | 40050 ft | 496 kts | 4° |
| 2026-05-07 19:59 | 50.22332 | 9.51387 | 40052 ft | 497 kts | 4° |
| 2026-05-07 19:59 | 50.29207 | 9.52607 | 40057 ft | 496 kts | 4° |
| 2026-05-07 20:00 | 50.36076 | 9.53826 | 40061 ft | 496 kts | 4° |
| 2026-05-07 20:00 | 50.42946 | 9.55049 | 40063 ft | 496 kts | 4° |
| 2026-05-07 20:01 | 50.49783 | 9.56269 | 40066 ft | 496 kts | 4° |
| 2026-05-07 20:01 | 50.56656 | 9.57499 | 40068 ft | 496 kts | 4° |
| 2026-05-07 20:02 | 50.63468 | 9.58722 | 40075 ft | 496 kts | 4° |
| 2026-05-07 20:02 | 50.70329 | 9.59958 | 40074 ft | 496 kts | 4° |
| 2026-05-07 20:03 | 50.77186 | 9.61196 | 40079 ft | 496 kts | 5° |
| 2026-05-07 20:03 | 50.84031 | 9.62437 | 40078 ft | 496 kts | 5° |
| 2026-05-07 20:04 | 50.90851 | 9.63676 | 40079 ft | 496 kts | 5° |
| 2026-05-07 20:04 | 50.97708 | 9.64926 | 40072 ft | 496 kts | 5° |
| 2026-05-07 20:05 | 51.04551 | 9.66177 | 40103 ft | 495 kts | 5° |
| 2026-05-07 20:05 | 51.11406 | 9.67437 | 40105 ft | 496 kts | 5° |
| 2026-05-07 20:06 | 51.18266 | 9.68696 | 40100 ft | 496 kts | 5° |
| 2026-05-07 20:06 | 51.25114 | 9.69900 | 40101 ft | 496 kts | 4° |
| 2026-05-07 20:07 | 51.31939 | 9.70974 | 40106 ft | 496 kts | 4° |
| 2026-05-07 20:07 | 51.38807 | 9.72073 | 40099 ft | 496 kts | 4° |
| 2026-05-07 20:08 | 51.45660 | 9.73189 | 40100 ft | 496 kts | 4° |
| 2026-05-07 20:08 | 51.52520 | 9.74393 | 40101 ft | 496 kts | 5° |
| 2026-05-07 20:09 | 51.59377 | 9.75726 | 40104 ft | 496 kts | 5° |
| 2026-05-07 20:10 | 51.69610 | 9.77683 | 40104 ft | 496 kts | 5° |
| 2026-05-07 20:10 | 51.76470 | 9.78987 | 40106 ft | 496 kts | 5° |
| 2026-05-07 20:11 | 51.83253 | 9.80281 | 40106 ft | 496 kts | 5° |
| 2026-05-07 20:11 | 51.90080 | 9.81590 | 40085 ft | 496 kts | 5° |
| 2026-05-07 20:12 | 51.96774 | 9.82889 | 39900 ft | 486 kts | 5° |
| 2026-05-07 20:12 | 52.00119 | 9.83542 | 39675 ft | 479 kts | 5° |
| 2026-05-07 20:12 | 52.03414 | 9.84184 | 39450 ft | 477 kts | 5° |
| 2026-05-07 20:12 | 52.06706 | 9.84824 | 39228 ft | 479 kts | 5° |
| 2026-05-07 20:13 | 52.09983 | 9.85460 | 39006 ft | 480 kts | 5° |
| 2026-05-07 20:13 | 52.13329 | 9.86113 | 38794 ft | 479 kts | 5° |
| 2026-05-07 20:13 | 52.16624 | 9.86757 | 38510 ft | 478 kts | 5° |
| 2026-05-07 20:13 | 52.19941 | 9.87406 | 37971 ft | 478 kts | 5° |
| 2026-05-07 20:14 | 52.23254 | 9.88057 | 37302 ft | 476 kts | 6° |
| 2026-05-07 20:14 | 52.26500 | 9.89025 | 36667 ft | 473 kts | 13° |
| 2026-05-07 20:14 | 52.29662 | 9.90447 | 36043 ft | 471 kts | 14° |
| 2026-05-07 20:14 | 52.32770 | 9.91830 | 35432 ft | 470 kts | 14° |
| 2026-05-07 20:15 | 52.35933 | 9.93207 | 34768 ft | 469 kts | 14° |
| 2026-05-07 20:15 | 52.39074 | 9.94575 | 34001 ft | 468 kts | 14° |
| 2026-05-07 20:15 | 52.42210 | 9.95949 | 33028 ft | 466 kts | 14° |
| 2026-05-07 20:15 | 52.45356 | 9.97337 | 32064 ft | 466 kts | 14° |
| 2026-05-07 20:16 | 52.48484 | 9.98721 | 31171 ft | 467 kts | 14° |
| 2026-05-07 20:16 | 52.51610 | 10.00107 | 30303 ft | 467 kts | 14° |
| 2026-05-07 20:16 | 52.54755 | 10.01503 | 29298 ft | 465 kts | 14° |
| 2026-05-07 20:16 | 52.57842 | 10.02876 | 28342 ft | 460 kts | 14° |
| 2026-05-07 20:17 | 52.60898 | 10.04241 | 27517 ft | 446 kts | 14° |
| 2026-05-07 20:17 | 52.63865 | 10.05569 | 27063 ft | 439 kts | 14° |
| 2026-05-07 20:17 | 52.66804 | 10.06885 | 26798 ft | 439 kts | 14° |
| 2026-05-07 20:17 | 52.69719 | 10.08190 | 26534 ft | 439 kts | 14° |
| 2026-05-07 20:18 | 52.72664 | 10.09511 | 26285 ft | 437 kts | 14° |
| 2026-05-07 20:18 | 52.75595 | 10.10812 | 26031 ft | 435 kts | 13° |
| 2026-05-07 20:18 | 52.78613 | 10.11686 | 25758 ft | 433 kts | 5° |
| 2026-05-07 20:18 | 52.81625 | 10.11952 | 25095 ft | 434 kts | 359° |
| 2026-05-07 20:19 | 52.84611 | 10.12014 | 24395 ft | 435 kts | 360° |
| 2026-05-07 20:19 | 52.87624 | 10.12098 | 23656 ft | 432 kts | 360° |
| 2026-05-07 20:19 | 52.90601 | 10.12193 | 22958 ft | 424 kts | 360° |
| 2026-05-07 20:19 | 52.93517 | 10.12289 | 22270 ft | 417 kts | 0° |
| 2026-05-07 20:20 | 52.96402 | 10.12385 | 21589 ft | 410 kts | 0° |
| 2026-05-07 20:20 | 52.99220 | 10.12479 | 20914 ft | 404 kts | 0° |
| 2026-05-07 20:20 | 53.01982 | 10.12571 | 20257 ft | 398 kts | 0° |
| 2026-05-07 20:20 | 53.04764 | 10.12663 | 19515 ft | 393 kts | 0° |
| 2026-05-07 20:21 | 53.07472 | 10.12752 | 18929 ft | 386 kts | 0° |
| 2026-05-07 20:21 | 53.10141 | 10.12839 | 18236 ft | 382 kts | 0° |
| 2026-05-07 20:21 | 53.12726 | 10.12925 | 17598 ft | 374 kts | 0° |
| 2026-05-07 20:21 | 53.15311 | 10.13011 | 16966 ft | 367 kts | 0° |
| 2026-05-07 20:22 | 53.17836 | 10.13095 | 16352 ft | 360 kts | 0° |
| 2026-05-07 20:22 | 53.20327 | 10.13178 | 15741 ft | 355 kts | 1° |
| 2026-05-07 20:22 | 53.22784 | 10.13260 | 15138 ft | 351 kts | 1° |
| 2026-05-07 20:22 | 53.25236 | 10.13343 | 14589 ft | 361 kts | 1° |
| 2026-05-07 20:23 | 53.27793 | 10.13428 | 13912 ft | 368 kts | 1° |
| 2026-05-07 20:23 | 53.30336 | 10.13512 | 13099 ft | 363 kts | 1° |
| 2026-05-07 20:23 | 53.32848 | 10.13595 | 12319 ft | 358 kts | 1° |
| 2026-05-07 20:23 | 53.35323 | 10.13677 | 11445 ft | 355 kts | 1° |
| 2026-05-07 20:24 | 53.37780 | 10.13666 | 10570 ft | 353 kts | 355° |
| 2026-05-07 20:24 | 53.40133 | 10.12591 | 9703 ft | 350 kts | 335° |
| 2026-05-07 20:24 | 53.42050 | 10.10364 | 8792 ft | 349 kts | 317° |
| 2026-05-07 20:24 | 53.43655 | 10.07348 | 7905 ft | 345 kts | 310° |
| 2026-05-07 20:25 | 53.45113 | 10.04279 | 7032 ft | 333 kts | 309° |
| 2026-05-07 20:25 | 53.46545 | 10.01314 | 6144 ft | 320 kts | 310° |
| 2026-05-07 20:25 | 53.47932 | 9.98498 | 5400 ft | 304 kts | 307° |
| 2026-05-07 20:25 | 53.48747 | 9.95411 | 5104 ft | 278 kts | 281° |
| 2026-05-07 20:26 | 53.48701 | 9.92357 | 5007 ft | 251 kts | 253° |
| 2026-05-07 20:26 | 53.47931 | 9.89879 | 5009 ft | 241 kts | 229° |
| 2026-05-07 20:26 | 53.46796 | 9.87798 | 4997 ft | 240 kts | 225° |
| 2026-05-07 20:26 | 53.45684 | 9.85720 | 4998 ft | 240 kts | 227° |
| 2026-05-07 20:27 | 53.44595 | 9.83594 | 5002 ft | 240 kts | 228° |
| 2026-05-07 20:27 | 53.43522 | 9.81445 | 4994 ft | 240 kts | 229° |
| 2026-05-07 20:27 | 53.42480 | 9.79342 | 4993 ft | 233 kts | 229° |
| 2026-05-07 20:27 | 53.41480 | 9.77317 | 4830 ft | 219 kts | 229° |
| 2026-05-07 20:28 | 53.40533 | 9.75400 | 4717 ft | 211 kts | 228° |
| 2026-05-07 20:28 | 53.39558 | 9.73441 | 4615 ft | 220 kts | 228° |
| 2026-05-07 20:28 | 53.38601 | 9.71521 | 4524 ft | 217 kts | 228° |
| 2026-05-07 20:28 | 53.37627 | 9.69572 | 4443 ft | 219 kts | 228° |
| 2026-05-07 20:29 | 53.36650 | 9.67617 | 4362 ft | 218 kts | 228° |
| 2026-05-07 20:29 | 53.35673 | 9.65664 | 4238 ft | 219 kts | 228° |
| 2026-05-07 20:29 | 53.34826 | 9.63576 | 3958 ft | 217 kts | 247° |
| 2026-05-07 20:29 | 53.34636 | 9.61073 | 3723 ft | 221 kts | 278° |
| 2026-05-07 20:30 | 53.34940 | 9.59465 | 3558 ft | 218 kts | 299° |
| 2026-05-07 20:30 | 53.35875 | 9.57497 | 3318 ft | 218 kts | 314° |
| 2026-05-07 20:30 | 53.37362 | 9.55363 | 3006 ft | 207 kts | 344° |
| 2026-05-07 20:30 | 53.38324 | 9.55192 | 2997 ft | 209 kts | 11° |
| 2026-05-07 20:31 | 53.39884 | 9.56654 | 2979 ft | 185 kts | 43° |
| 2026-05-07 20:31 | 53.40966 | 9.57630 | 3003 ft | 171 kts | 28° |
| 2026-05-07 20:31 | 53.41909 | 9.58851 | 3014 ft | 173 kts | 47° |
| 2026-05-07 20:31 | 53.42759 | 9.60223 | 2998 ft | 168 kts | 45° |
| 2026-05-07 20:32 | 53.43390 | 9.61002 | 3003 ft | 173 kts | 38° |
| 2026-05-07 20:32 | 53.44361 | 9.62158 | 2990 ft | 169 kts | 41° |
| 2026-05-07 20:32 | 53.45175 | 9.63504 | 2994 ft | 171 kts | 50° |
| 2026-05-07 20:32 | 53.45961 | 9.64979 | 2999 ft | 169 kts | 51° |
| 2026-05-07 20:33 | 53.46739 | 9.66460 | 2997 ft | 170 kts | 51° |
| 2026-05-07 20:33 | 53.47520 | 9.67953 | 2994 ft | 170 kts | 51° |
| 2026-05-07 20:33 | 53.48318 | 9.69416 | 3000 ft | 171 kts | 48° |
| 2026-05-07 20:33 | 53.49162 | 9.70827 | 2997 ft | 170 kts | 49° |
| 2026-05-07 20:34 | 53.49939 | 9.72314 | 2999 ft | 171 kts | 52° |
| 2026-05-07 20:34 | 53.50696 | 9.73824 | 2997 ft | 170 kts | 53° |
| 2026-05-07 20:34 | 53.51461 | 9.75309 | 3004 ft | 170 kts | 51° |
| 2026-05-07 20:34 | 53.52238 | 9.76823 | 2997 ft | 170 kts | 53° |
| 2026-05-07 20:35 | 53.52990 | 9.78371 | 2867 ft | 170 kts | 53° |
| 2026-05-07 20:35 | 53.53741 | 9.79894 | 2644 ft | 168 kts | 53° |
| 2026-05-07 20:35 | 53.54475 | 9.81391 | 2409 ft | 162 kts | 54° |
| 2026-05-07 20:35 | 53.55164 | 9.82792 | 2197 ft | 149 kts | 54° |
| 2026-05-07 20:36 | 53.55821 | 9.84136 | 2000 ft | 151 kts | 54° |
| 2026-05-07 20:36 | 53.56474 | 9.85463 | 1785 ft | 145 kts | 54° |
| 2026-05-07 20:36 | 53.57113 | 9.86768 | 1601 ft | 142 kts | 53° |
| 2026-05-07 20:36 | 53.57718 | 9.87991 | 1402 ft | 127 kts | 54° |
| 2026-05-07 20:37 | 53.58272 | 9.89127 | 1262 ft | 127 kts | 53° |
| 2026-05-07 20:37 | 53.58823 | 9.90267 | 1047 ft | 129 kts | 52° |
| 2026-05-07 20:37 | 53.59382 | 9.91407 | 786 ft | 123 kts | 54° |
| 2026-05-07 20:37 | 53.59923 | 9.92568 | 654 ft | 130 kts | 52° |
| 2026-05-07 20:38 | 53.60495 | 9.93696 | 545 ft | 128 kts | 50° |
| 2026-05-07 20:38 | 53.61058 | 9.94819 | 397 ft | 124 kts | 52° |
| 2026-05-07 20:38 | 53.61595 | 9.95927 | 217 ft | 128 kts | 51° |
| 2026-05-07 20:38 | 53.62143 | 9.97027 | 89 ft | 117 kts | 50° |
| 2026-05-07 20:39 | 53.62593 | 9.97946 | 47 ft | 78 kts | 49° |
| 2026-05-07 20:39 | 53.62826 | 9.98408 | 49 ft | 38 kts | 49° |
| 2026-05-07 20:39 | 53.63021 | 9.98786 | 51 ft | 44 kts | 50° |
| 2026-05-07 20:39 | 53.63210 | 9.99171 | 50 ft | 41 kts | 50° |
| 2026-05-07 20:40 | 53.63290 | 9.99440 | 50 ft | 15 kts | 80° |
| 2026-05-07 20:40 | 53.63290 | 9.99519 | 53 ft | 0 kts | 94° |
| 2026-05-07 20:40 | 53.63290 | 9.99520 | 53 ft | 1 kts | 94° |
| 2026-05-07 20:40 | 53.63284 | 9.99578 | 51 ft | 6 kts | 99° |
| 2026-05-07 20:41 | 53.63276 | 9.99664 | 54 ft | 8 kts | 99° |
| 2026-05-07 20:41 | 53.63285 | 9.99767 | 48 ft | 9 kts | 65° |
| 2026-05-07 20:41 | 53.63329 | 9.99863 | 53 ft | 11 kts | 51° |
| 2026-05-07 20:41 | 53.63381 | 9.99970 | 47 ft | 8 kts | 49° |
| 2026-05-07 20:42 | 53.63420 | 10.00047 | 49 ft | 10 kts | 52° |
| 2026-05-07 20:42 | 53.63416 | 10.00144 | 54 ft | 9 kts | 120° |
| 2026-05-07 20:42 | 53.63362 | 10.00195 | 49 ft | 10 kts | 160° |
| 2026-05-07 20:42 | 53.63317 | 10.00203 | 49 ft | 2 kts | 175° |
| 2026-05-07 20:43 | 53.63293 | 10.00210 | 50 ft | 4 kts | 164° |
| 2026-05-07 20:43 | 53.63287 | 10.00246 | 49 ft | 4 kts | 112° |
| 2026-05-07 20:43 | 53.63278 | 10.00302 | 54 ft | 6 kts | 98° |
| 2026-05-07 20:43 | 53.63279 | 10.00323 | 54 ft | 2 kts | 90° |
| 2026-05-07 20:44 | 53.63279 | 10.00351 | 54 ft | 1 kts | 88° |
| 2026-05-07 20:44 | 53.63280 | 10.00372 | 54 ft | 0 kts | 87° |
| 2026-05-07 20:44 | 53.63280 | 10.00373 | 54 ft | 0 kts | 87° |
| 2026-05-07 20:44 | 53.63280 | 10.00374 | 54 ft | 0 kts | 87° |